CheckWX is a tool to help pilots better visualize weather data.  It is not intended as a substitute for an official pre-flight weather briefing.

05:25:56 UTC

LFOH TAF
Le Havre Octeville Airport
Le Havre/Octeville, France
TAF LFOH 231100Z 2312/2412 13008KT 8000 NSC

Feb-23@
12:00 UTC

Feb-23 @ 12:00 UTC

Feb-24@
12:00 UTC

Feb-24 @ 12:00 UTC

TAF LFOH 231100Z 2312/2412 13008KT 8000 NSC
Wind
  • 130° at 8 KTS
Cloud Levels
  • No significant clouds